sensor_id;sensor_type;location;lat;lon;timestamp;temperature;humidity
4487;DHT22;2256;48.740;9.106;2024-03-07T00:01:49;5.90;99.90
4487;DHT22;2256;48.740;9.106;2024-03-07T00:04:17;5.90;99.90
4487;DHT22;2256;48.740;9.106;2024-03-07T00:06:44;5.90;99.90
4487;DHT22;2256;48.740;9.106;2024-03-07T00:09:11;5.90;99.90
4487;DHT22;2256;48.740;9.106;2024-03-07T00:11:38;5.80;99.90
4487;DHT22;2256;48.740;9.106;2024-03-07T00:14:05;5.80;99.90
4487;DHT22;2256;48.740;9.106;2024-03-07T00:16:32;5.80;99.90
4487;DHT22;2256;48.740;9.106;2024-03-07T00:18:59;5.80;99.90
4487;DHT22;2256;48.740;9.106;2024-03-07T00:21:28;5.70;99.90
4487;DHT22;2256;48.740;9.106;2024-03-07T00:23:55;5.70;99.90
4487;DHT22;2256;48.740;9.106;2024-03-07T00:26:21;5.60;99.90
4487;DHT22;2256;48.740;9.106;2024-03-07T00:28:48;5.60;99.90
4487;DHT22;2256;48.740;9.106;2024-03-07T00:31:15;5.40;99.90
4487;DHT22;2256;48.740;9.106;2024-03-07T00:33:42;5.40;99.90
4487;DHT22;2256;48.740;9.106;2024-03-07T00:36:09;5.30;99.90
4487;DHT22;2256;48.740;9.106;2024-03-07T00:38:37;5.30;99.90
4487;DHT22;2256;48.740;9.106;2024-03-07T00:41:04;5.40;99.90
4487;DHT22;2256;48.740;9.106;2024-03-07T00:43:30;5.40;99.90
4487;DHT22;2256;48.740;9.106;2024-03-07T00:45:58;5.40;99.90
4487;DHT22;2256;48.740;9.106;2024-03-07T00:48:24;5.30;99.90
4487;DHT22;2256;48.740;9.106;2024-03-07T00:50:51;5.40;99.90
4487;DHT22;2256;48.740;9.106;2024-03-07T00:53:18;5.40;99.90
4487;DHT22;2256;48.740;9.106;2024-03-07T00:55:46;5.30;99.90
4487;DHT22;2256;48.740;9.106;2024-03-07T00:58:13;5.30;99.90
4487;DHT22;2256;48.740;9.106;2024-03-07T01:00:40;5.30;99.90
4487;DHT22;2256;48.740;9.106;2024-03-07T01:03:08;5.40;99.90
4487;DHT22;2256;48.740;9.106;2024-03-07T01:05:39;5.40;99.90
4487;DHT22;2256;48.740;9.106;2024-03-07T01:08:06;5.50;99.90
4487;DHT22;2256;48.740;9.106;2024-03-07T01:10:33;5.50;99.90
4487;DHT22;2256;48.740;9.106;2024-03-07T01:13:01;5.50;99.90
4487;DHT22;2256;48.740;9.106;2024-03-07T01:15:32;5.50;99.90
4487;DHT22;2256;48.740;9.106;2024-03-07T01:17:58;5.50;99.90
4487;DHT22;2256;48.740;9.106;2024-03-07T01:20:25;5.50;99.90
4487;DHT22;2256;48.740;9.106;2024-03-07T01:22:52;5.50;99.90
4487;DHT22;2256;48.740;9.106;2024-03-07T01:25:22;5.50;99.90
4487;DHT22;2256;48.740;9.106;2024-03-07T01:27:49;5.60;99.90
4487;DHT22;2256;48.740;9.106;2024-03-07T01:30:18;5.60;99.90
4487;DHT22;2256;48.740;9.106;2024-03-07T01:32:45;5.50;99.90
4487;DHT22;2256;48.740;9.106;2024-03-07T01:35:11;5.50;99.90
4487;DHT22;2256;48.740;9.106;2024-03-07T01:37:39;5.50;99.90
4487;DHT22;2256;48.740;9.106;2024-03-07T01:40:07;5.40;99.90
4487;DHT22;2256;48.740;9.106;2024-03-07T01:42:34;5.30;99.90
4487;DHT22;2256;48.740;9.106;2024-03-07T01:45:01;5.20;99.90
4487;DHT22;2256;48.740;9.106;2024-03-07T01:47:29;5.20;99.90
4487;DHT22;2256;48.740;9.106;2024-03-07T01:49:56;5.10;99.90
4487;DHT22;2256;48.740;9.106;2024-03-07T01:52:25;5.10;99.90
4487;DHT22;2256;48.740;9.106;2024-03-07T01:54:52;5.10;99.90
4487;DHT22;2256;48.740;9.106;2024-03-07T01:57:19;5.10;99.90
4487;DHT22;2256;48.740;9.106;2024-03-07T01:59:46;5.00;99.90
4487;DHT22;2256;48.740;9.106;2024-03-07T02:02:14;5.10;99.90
4487;DHT22;2256;48.740;9.106;2024-03-07T02:04:42;5.10;99.90
4487;DHT22;2256;48.740;9.106;2024-03-07T02:07:09;5.00;99.90
4487;DHT22;2256;48.740;9.106;2024-03-07T02:09:37;4.90;99.90
4487;DHT22;2256;48.740;9.106;2024-03-07T02:12:04;4.80;99.90
4487;DHT22;2256;48.740;9.106;2024-03-07T02:14:31;4.70;99.90
4487;DHT22;2256;48.740;9.106;2024-03-07T02:16:58;4.50;99.90
4487;DHT22;2256;48.740;9.106;2024-03-07T02:19:24;4.40;99.90
4487;DHT22;2256;48.740;9.106;2024-03-07T02:21:53;4.20;99.90
4487;DHT22;2256;48.740;9.106;2024-03-07T02:24:19;4.10;99.90
4487;DHT22;2256;48.740;9.106;2024-03-07T02:26:47;4.10;99.90
4487;DHT22;2256;48.740;9.106;2024-03-07T02:29:13;4.00;99.90
4487;DHT22;2256;48.740;9.106;2024-03-07T02:31:40;3.90;99.90
4487;DHT22;2256;48.740;9.106;2024-03-07T02:34:07;3.80;99.90
4487;DHT22;2256;48.740;9.106;2024-03-07T02:36:34;3.70;99.90
4487;DHT22;2256;48.740;9.106;2024-03-07T02:39:02;3.70;99.90
4487;DHT22;2256;48.740;9.106;2024-03-07T02:41:29;3.60;99.90
4487;DHT22;2256;48.740;9.106;2024-03-07T02:43:56;3.70;99.90
4487;DHT22;2256;48.740;9.106;2024-03-07T02:46:23;3.60;99.90
4487;DHT22;2256;48.740;9.106;2024-03-07T02:48:50;3.50;99.90
4487;DHT22;2256;48.740;9.106;2024-03-07T02:51:17;3.40;99.90
4487;DHT22;2256;48.740;9.106;2024-03-07T02:53:43;3.40;99.90
4487;DHT22;2256;48.740;9.106;2024-03-07T02:56:12;3.30;99.90
4487;DHT22;2256;48.740;9.106;2024-03-07T02:58:38;3.30;99.90
4487;DHT22;2256;48.740;9.106;2024-03-07T03:01:06;3.20;99.90
4487;DHT22;2256;48.740;9.106;2024-03-07T03:03:32;3.10;99.90
4487;DHT22;2256;48.740;9.106;2024-03-07T03:06:00;3.00;99.90
4487;DHT22;2256;48.740;9.106;2024-03-07T03:08:26;3.00;99.90
4487;DHT22;2256;48.740;9.106;2024-03-07T03:10:54;3.00;99.90
4487;DHT22;2256;48.740;9.106;2024-03-07T03:13:24;3.00;99.90
4487;DHT22;2256;48.740;9.106;2024-03-07T03:15:53;3.00;99.90
4487;DHT22;2256;48.740;9.106;2024-03-07T03:18:19;2.90;99.90
4487;DHT22;2256;48.740;9.106;2024-03-07T03:20:46;2.90;99.90
4487;DHT22;2256;48.740;9.106;2024-03-07T03:23:13;2.80;99.90
4487;DHT22;2256;48.740;9.106;2024-03-07T03:25:41;2.80;99.90
4487;DHT22;2256;48.740;9.106;2024-03-07T03:28:08;2.80;99.90
4487;DHT22;2256;48.740;9.106;2024-03-07T03:30:38;2.80;99.90
4487;DHT22;2256;48.740;9.106;2024-03-07T03:33:06;2.80;99.90
4487;DHT22;2256;48.740;9.106;2024-03-07T03:35:33;2.80;99.90
4487;DHT22;2256;48.740;9.106;2024-03-07T03:38:00;2.70;99.90
4487;DHT22;2256;48.740;9.106;2024-03-07T03:40:27;2.60;99.90
4487;DHT22;2256;48.740;9.106;2024-03-07T03:42:54;2.60;99.90
4487;DHT22;2256;48.740;9.106;2024-03-07T03:45:21;2.50;99.90
4487;DHT22;2256;48.740;9.106;2024-03-07T03:47:49;2.50;99.90
4487;DHT22;2256;48.740;9.106;2024-03-07T03:50:16;2.50;99.90
4487;DHT22;2256;48.740;9.106;2024-03-07T03:52:43;2.40;99.90
4487;DHT22;2256;48.740;9.106;2024-03-07T03:55:10;2.40;99.90
4487;DHT22;2256;48.740;9.106;2024-03-07T03:57:39;2.50;99.90
4487;DHT22;2256;48.740;9.106;2024-03-07T04:00:08;2.50;99.90
4487;DHT22;2256;48.740;9.106;2024-03-07T04:02:39;2.50;99.90
4487;DHT22;2256;48.740;9.106;2024-03-07T04:05:08;2.40;99.90
4487;DHT22;2256;48.740;9.106;2024-03-07T04:07:36;2.40;99.90
4487;DHT22;2256;48.740;9.106;2024-03-07T04:10:04;2.40;99.90
4487;DHT22;2256;48.740;9.106;2024-03-07T04:12:33;2.40;99.90
4487;DHT22;2256;48.740;9.106;2024-03-07T04:15:00;2.50;99.90
4487;DHT22;2256;48.740;9.106;2024-03-07T04:17:29;2.50;99.90
4487;DHT22;2256;48.740;9.106;2024-03-07T04:19:57;2.40;99.90
4487;DHT22;2256;48.740;9.106;2024-03-07T04:22:25;2.40;99.90
4487;DHT22;2256;48.740;9.106;2024-03-07T04:24:53;2.30;99.90
4487;DHT22;2256;48.740;9.106;2024-03-07T04:27:20;2.20;99.90
4487;DHT22;2256;48.740;9.106;2024-03-07T04:29:48;2.20;99.90
4487;DHT22;2256;48.740;9.106;2024-03-07T04:32:15;2.20;99.90
4487;DHT22;2256;48.740;9.106;2024-03-07T04:34:43;2.20;99.90
4487;DHT22;2256;48.740;9.106;2024-03-07T04:37:10;2.30;99.90
4487;DHT22;2256;48.740;9.106;2024-03-07T04:39:38;2.10;99.90
4487;DHT22;2256;48.740;9.106;2024-03-07T04:42:06;2.10;99.90
4487;DHT22;2256;48.740;9.106;2024-03-07T04:44:34;2.10;99.90
4487;DHT22;2256;48.740;9.106;2024-03-07T04:47:03;2.10;99.90
4487;DHT22;2256;48.740;9.106;2024-03-07T04:49:31;2.10;99.90
4487;DHT22;2256;48.740;9.106;2024-03-07T04:52:00;2.00;99.90
4487;DHT22;2256;48.740;9.106;2024-03-07T04:54:27;2.00;99.90
4487;DHT22;2256;48.740;9.106;2024-03-07T04:56:55;2.00;99.90
4487;DHT22;2256;48.740;9.106;2024-03-07T04:59:22;1.80;99.90
4487;DHT22;2256;48.740;9.106;2024-03-07T05:01:50;1.80;99.90
4487;DHT22;2256;48.740;9.106;2024-03-07T05:04:17;1.80;99.90
4487;DHT22;2256;48.740;9.106;2024-03-07T05:06:45;1.80;99.90
4487;DHT22;2256;48.740;9.106;2024-03-07T05:09:14;1.80;99.90
4487;DHT22;2256;48.740;9.106;2024-03-07T05:11:49;1.80;99.90
4487;DHT22;2256;48.740;9.106;2024-03-07T05:14:18;1.80;99.90
4487;DHT22;2256;48.740;9.106;2024-03-07T05:16:46;1.70;99.90
4487;DHT22;2256;48.740;9.106;2024-03-07T05:19:27;1.70;99.90
4487;DHT22;2256;48.740;9.106;2024-03-07T05:21:54;1.70;99.90
4487;DHT22;2256;48.740;9.106;2024-03-07T05:24:21;1.70;99.90
4487;DHT22;2256;48.740;9.106;2024-03-07T05:26:48;1.70;99.90
4487;DHT22;2256;48.740;9.106;2024-03-07T05:29:15;1.60;99.90
4487;DHT22;2256;48.740;9.106;2024-03-07T05:31:44;1.60;99.90
4487;DHT22;2256;48.740;9.106;2024-03-07T05:34:12;1.60;99.90
4487;DHT22;2256;48.740;9.106;2024-03-07T05:36:40;1.60;99.90
4487;DHT22;2256;48.740;9.106;2024-03-07T05:39:11;1.60;99.90
4487;DHT22;2256;48.740;9.106;2024-03-07T05:41:38;1.50;99.90
4487;DHT22;2256;48.740;9.106;2024-03-07T05:44:05;1.50;99.90
4487;DHT22;2256;48.740;9.106;2024-03-07T05:46:35;1.50;99.90
4487;DHT22;2256;48.740;9.106;2024-03-07T05:49:04;1.50;99.90
4487;DHT22;2256;48.740;9.106;2024-03-07T05:51:31;1.50;99.90
4487;DHT22;2256;48.740;9.106;2024-03-07T05:53:58;1.40;99.90
4487;DHT22;2256;48.740;9.106;2024-03-07T05:56:24;1.50;99.90
4487;DHT22;2256;48.740;9.106;2024-03-07T05:58:51;1.40;99.90
4487;DHT22;2256;48.740;9.106;2024-03-07T06:01:18;1.40;99.90
4487;DHT22;2256;48.740;9.106;2024-03-07T06:03:45;1.50;99.90
4487;DHT22;2256;48.740;9.106;2024-03-07T06:06:15;1.50;99.90
4487;DHT22;2256;48.740;9.106;2024-03-07T06:08:42;1.40;99.90
4487;DHT22;2256;48.740;9.106;2024-03-07T06:11:10;1.40;99.90
4487;DHT22;2256;48.740;9.106;2024-03-07T06:13:38;1.30;99.90
4487;DHT22;2256;48.740;9.106;2024-03-07T06:16:05;1.40;99.90
4487;DHT22;2256;48.740;9.106;2024-03-07T06:18:34;1.40;99.90
4487;DHT22;2256;48.740;9.106;2024-03-07T06:21:01;1.40;99.90
4487;DHT22;2256;48.740;9.106;2024-03-07T06:23:31;1.50;99.90
4487;DHT22;2256;48.740;9.106;2024-03-07T06:25:58;1.60;99.90
4487;DHT22;2256;48.740;9.106;2024-03-07T06:28:26;1.70;99.90
4487;DHT22;2256;48.740;9.106;2024-03-07T06:30:54;1.80;99.90
4487;DHT22;2256;48.740;9.106;2024-03-07T06:33:21;1.80;99.90
4487;DHT22;2256;48.740;9.106;2024-03-07T06:35:48;1.90;99.90
4487;DHT22;2256;48.740;9.106;2024-03-07T06:38:15;2.00;99.90
4487;DHT22;2256;48.740;9.106;2024-03-07T06:40:43;2.10;99.90
4487;DHT22;2256;48.740;9.106;2024-03-07T06:43:09;2.20;99.90
4487;DHT22;2256;48.740;9.106;2024-03-07T06:45:36;2.40;99.90
4487;DHT22;2256;48.740;9.106;2024-03-07T06:48:04;2.50;99.90
4487;DHT22;2256;48.740;9.106;2024-03-07T06:50:32;2.60;99.90
4487;DHT22;2256;48.740;9.106;2024-03-07T06:52:59;2.70;99.90
4487;DHT22;2256;48.740;9.106;2024-03-07T06:55:28;2.90;99.90
4487;DHT22;2256;48.740;9.106;2024-03-07T06:57:56;3.00;99.90
4487;DHT22;2256;48.740;9.106;2024-03-07T07:00:23;2.90;99.90
4487;DHT22;2256;48.740;9.106;2024-03-07T07:02:52;3.00;99.90
4487;DHT22;2256;48.740;9.106;2024-03-07T07:05:20;3.10;99.90
4487;DHT22;2256;48.740;9.106;2024-03-07T07:07:47;3.20;99.90
4487;DHT22;2256;48.740;9.106;2024-03-07T07:10:14;3.30;99.90
4487;DHT22;2256;48.740;9.106;2024-03-07T07:12:44;3.40;99.90
4487;DHT22;2256;48.740;9.106;2024-03-07T07:15:15;3.70;99.90
4487;DHT22;2256;48.740;9.106;2024-03-07T07:17:44;3.80;99.90
4487;DHT22;2256;48.740;9.106;2024-03-07T07:20:12;3.80;99.90
4487;DHT22;2256;48.740;9.106;2024-03-07T07:22:41;3.70;99.90
4487;DHT22;2256;48.740;9.106;2024-03-07T07:25:09;3.60;99.90
4487;DHT22;2256;48.740;9.106;2024-03-07T07:27:40;3.60;99.90
4487;DHT22;2256;48.740;9.106;2024-03-07T07:30:08;3.50;99.90
4487;DHT22;2256;48.740;9.106;2024-03-07T07:32:36;3.50;99.90
4487;DHT22;2256;48.740;9.106;2024-03-07T07:35:03;3.50;99.90
4487;DHT22;2256;48.740;9.106;2024-03-07T07:37:35;3.40;99.90
4487;DHT22;2256;48.740;9.106;2024-03-07T07:40:02;3.50;99.90
4487;DHT22;2256;48.740;9.106;2024-03-07T07:42:29;3.50;99.90
4487;DHT22;2256;48.740;9.106;2024-03-07T07:44:56;3.70;99.90
4487;DHT22;2256;48.740;9.106;2024-03-07T07:47:22;4.00;99.90
4487;DHT22;2256;48.740;9.106;2024-03-07T07:49:51;4.30;99.90
4487;DHT22;2256;48.740;9.106;2024-03-07T07:52:17;4.80;99.90
4487;DHT22;2256;48.740;9.106;2024-03-07T07:54:44;5.20;99.90
4487;DHT22;2256;48.740;9.106;2024-03-07T07:57:11;5.50;99.90
4487;DHT22;2256;48.740;9.106;2024-03-07T07:59:38;5.70;99.90
4487;DHT22;2256;48.740;9.106;2024-03-07T08:02:05;5.70;99.90
4487;DHT22;2256;48.740;9.106;2024-03-07T08:04:32;5.70;99.90
4487;DHT22;2256;48.740;9.106;2024-03-07T08:07:00;5.50;99.90
4487;DHT22;2256;48.740;9.106;2024-03-07T08:09:27;5.30;99.90
4487;DHT22;2256;48.740;9.106;2024-03-07T08:11:53;5.00;99.90
4487;DHT22;2256;48.740;9.106;2024-03-07T08:14:20;4.80;99.90
4487;DHT22;2256;48.740;9.106;2024-03-07T08:16:48;5.00;99.90
4487;DHT22;2256;48.740;9.106;2024-03-07T08:19:15;5.20;99.90
4487;DHT22;2256;48.740;9.106;2024-03-07T08:21:42;5.40;99.90
4487;DHT22;2256;48.740;9.106;2024-03-07T08:24:10;5.70;99.90
4487;DHT22;2256;48.740;9.106;2024-03-07T08:26:37;5.90;99.90
4487;DHT22;2256;48.740;9.106;2024-03-07T08:29:09;5.70;99.90
4487;DHT22;2256;48.740;9.106;2024-03-07T08:31:37;5.40;99.90
4487;DHT22;2256;48.740;9.106;2024-03-07T08:34:04;4.90;99.90
4487;DHT22;2256;48.740;9.106;2024-03-07T08:36:31;4.70;99.90
4487;DHT22;2256;48.740;9.106;2024-03-07T08:38:57;4.50;99.90
4487;DHT22;2256;48.740;9.106;2024-03-07T08:41:26;4.40;99.90
4487;DHT22;2256;48.740;9.106;2024-03-07T08:43:52;4.10;99.90
4487;DHT22;2256;48.740;9.106;2024-03-07T08:46:19;3.90;99.90
4487;DHT22;2256;48.740;9.106;2024-03-07T08:48:46;4.00;99.90
4487;DHT22;2256;48.740;9.106;2024-03-07T08:51:14;4.00;99.90
4487;DHT22;2256;48.740;9.106;2024-03-07T08:53:41;4.10;99.90
4487;DHT22;2256;48.740;9.106;2024-03-07T08:56:08;4.10;99.90
4487;DHT22;2256;48.740;9.106;2024-03-07T08:58:37;4.00;99.90
4487;DHT22;2256;48.740;9.106;2024-03-07T09:01:04;3.90;99.90
4487;DHT22;2256;48.740;9.106;2024-03-07T09:03:30;3.90;99.90
4487;DHT22;2256;48.740;9.106;2024-03-07T09:05:58;3.90;99.90
4487;DHT22;2256;48.740;9.106;2024-03-07T09:08:24;3.90;99.90
4487;DHT22;2256;48.740;9.106;2024-03-07T09:10:52;4.00;99.90
4487;DHT22;2256;48.740;9.106;2024-03-07T09:13:20;4.20;99.90
4487;DHT22;2256;48.740;9.106;2024-03-07T09:15:48;4.10;99.90
4487;DHT22;2256;48.740;9.106;2024-03-07T09:18:15;4.30;99.90
4487;DHT22;2256;48.740;9.106;2024-03-07T09:20:42;4.30;99.90
4487;DHT22;2256;48.740;9.106;2024-03-07T09:23:09;4.30;99.90
4487;DHT22;2256;48.740;9.106;2024-03-07T09:25:36;4.40;99.90
4487;DHT22;2256;48.740;9.106;2024-03-07T09:28:03;4.50;99.90
4487;DHT22;2256;48.740;9.106;2024-03-07T09:30:31;4.60;99.90
4487;DHT22;2256;48.740;9.106;2024-03-07T09:32:59;4.80;99.90
4487;DHT22;2256;48.740;9.106;2024-03-07T09:35:27;4.90;99.90
4487;DHT22;2256;48.740;9.106;2024-03-07T09:37:54;4.70;99.90
4487;DHT22;2256;48.740;9.106;2024-03-07T09:40:22;4.90;99.90
4487;DHT22;2256;48.740;9.106;2024-03-07T09:42:50;5.20;99.90
4487;DHT22;2256;48.740;9.106;2024-03-07T09:45:19;5.40;99.90
4487;DHT22;2256;48.740;9.106;2024-03-07T09:47:48;5.50;99.90
4487;DHT22;2256;48.740;9.106;2024-03-07T09:50:17;5.70;99.90
4487;DHT22;2256;48.740;9.106;2024-03-07T09:52:48;5.80;99.90
4487;DHT22;2256;48.740;9.106;2024-03-07T09:55:16;5.80;99.90
4487;DHT22;2256;48.740;9.106;2024-03-07T09:57:46;5.80;99.90
4487;DHT22;2256;48.740;9.106;2024-03-07T10:00:16;5.80;99.90
4487;DHT22;2256;48.740;9.106;2024-03-07T10:02:49;5.70;99.90
4487;DHT22;2256;48.740;9.106;2024-03-07T10:05:18;6.00;99.90
4487;DHT22;2256;48.740;9.106;2024-03-07T10:07:46;6.20;99.90
4487;DHT22;2256;48.740;9.106;2024-03-07T10:10:13;6.30;99.90
4487;DHT22;2256;48.740;9.106;2024-03-07T10:12:39;6.20;99.90
4487;DHT22;2256;48.740;9.106;2024-03-07T10:15:08;6.10;99.90
4487;DHT22;2256;48.740;9.106;2024-03-07T10:17:38;6.30;99.90
4487;DHT22;2256;48.740;9.106;2024-03-07T10:20:06;6.50;99.90
4487;DHT22;2256;48.740;9.106;2024-03-07T10:22:37;6.40;99.90
4487;DHT22;2256;48.740;9.106;2024-03-07T10:25:05;6.10;99.90
4487;DHT22;2256;48.740;9.106;2024-03-07T10:27:31;6.00;99.90
4487;DHT22;2256;48.740;9.106;2024-03-07T10:29:58;6.00;99.90
4487;DHT22;2256;48.740;9.106;2024-03-07T10:32:26;6.20;99.90
4487;DHT22;2256;48.740;9.106;2024-03-07T10:34:53;6.20;99.90
4487;DHT22;2256;48.740;9.106;2024-03-07T10:37:20;5.80;99.90
4487;DHT22;2256;48.740;9.106;2024-03-07T10:39:48;5.80;99.90
4487;DHT22;2256;48.740;9.106;2024-03-07T10:42:17;6.20;99.90
4487;DHT22;2256;48.740;9.106;2024-03-07T10:44:45;6.70;99.90
4487;DHT22;2256;48.740;9.106;2024-03-07T10:47:15;6.70;99.90
4487;DHT22;2256;48.740;9.106;2024-03-07T10:49:56;6.70;99.90
4487;DHT22;2256;48.740;9.106;2024-03-07T10:52:29;6.70;99.90
4487;DHT22;2256;48.740;9.106;2024-03-07T10:55:08;6.60;99.90
4487;DHT22;2256;48.740;9.106;2024-03-07T10:57:43;6.60;99.90
4487;DHT22;2256;48.740;9.106;2024-03-07T11:00:12;6.70;99.90
4487;DHT22;2256;48.740;9.106;2024-03-07T11:02:56;6.70;99.90
4487;DHT22;2256;48.740;9.106;2024-03-07T11:05:25;6.50;99.90
4487;DHT22;2256;48.740;9.106;2024-03-07T11:07:57;6.60;99.90
4487;DHT22;2256;48.740;9.106;2024-03-07T11:10:25;6.60;99.90
4487;DHT22;2256;48.740;9.106;2024-03-07T11:12:53;6.60;99.90
4487;DHT22;2256;48.740;9.106;2024-03-07T11:15:21;6.50;99.90
4487;DHT22;2256;48.740;9.106;2024-03-07T11:17:52;6.60;99.90
4487;DHT22;2256;48.740;9.106;2024-03-07T11:20:21;6.70;99.90
4487;DHT22;2256;48.740;9.106;2024-03-07T11:22:48;6.90;99.90
4487;DHT22;2256;48.740;9.106;2024-03-07T11:25:18;7.00;99.90
4487;DHT22;2256;48.740;9.106;2024-03-07T11:27:55;7.10;99.90
4487;DHT22;2256;48.740;9.106;2024-03-07T11:30:23;7.00;99.90
4487;DHT22;2256;48.740;9.106;2024-03-07T11:32:50;6.80;99.90
4487;DHT22;2256;48.740;9.106;2024-03-07T11:35:19;6.80;99.90
4487;DHT22;2256;48.740;9.106;2024-03-07T11:37:56;6.80;99.90
4487;DHT22;2256;48.740;9.106;2024-03-07T11:40:46;6.90;99.90
4487;DHT22;2256;48.740;9.106;2024-03-07T11:43:17;7.00;99.90
4487;DHT22;2256;48.740;9.106;2024-03-07T11:45:43;7.20;99.90
4487;DHT22;2256;48.740;9.106;2024-03-07T11:48:17;7.50;99.90
4487;DHT22;2256;48.740;9.106;2024-03-07T11:50:46;7.80;99.90
4487;DHT22;2256;48.740;9.106;2024-03-07T11:53:14;8.10;99.90
4487;DHT22;2256;48.740;9.106;2024-03-07T11:55:41;7.80;99.90
4487;DHT22;2256;48.740;9.106;2024-03-07T11:58:14;7.90;99.90
4487;DHT22;2256;48.740;9.106;2024-03-07T12:00:44;7.90;99.90
4487;DHT22;2256;48.740;9.106;2024-03-07T12:03:11;8.10;99.90
4487;DHT22;2256;48.740;9.106;2024-03-07T12:05:43;8.10;99.90
4487;DHT22;2256;48.740;9.106;2024-03-07T12:08:10;8.40;99.90
4487;DHT22;2256;48.740;9.106;2024-03-07T12:10:38;8.50;99.90
4487;DHT22;2256;48.740;9.106;2024-03-07T12:13:09;8.50;99.90
4487;DHT22;2256;48.740;9.106;2024-03-07T12:15:37;8.60;99.90
4487;DHT22;2256;48.740;9.106;2024-03-07T12:18:07;8.50;99.90
4487;DHT22;2256;48.740;9.106;2024-03-07T12:20:40;8.30;99.90
4487;DHT22;2256;48.740;9.106;2024-03-07T12:23:08;8.50;99.90
4487;DHT22;2256;48.740;9.106;2024-03-07T12:25:37;8.50;99.90
4487;DHT22;2256;48.740;9.106;2024-03-07T12:28:06;8.30;99.90
4487;DHT22;2256;48.740;9.106;2024-03-07T12:30:47;8.20;99.90
4487;DHT22;2256;48.740;9.106;2024-03-07T12:33:16;8.00;99.90
4487;DHT22;2256;48.740;9.106;2024-03-07T12:35:44;7.80;99.90
4487;DHT22;2256;48.740;9.106;2024-03-07T12:38:11;7.70;99.90
4487;DHT22;2256;48.740;9.106;2024-03-07T12:40:40;7.50;99.90
4487;DHT22;2256;48.740;9.106;2024-03-07T12:43:15;7.50;99.90
4487;DHT22;2256;48.740;9.106;2024-03-07T12:45:52;7.50;99.90
4487;DHT22;2256;48.740;9.106;2024-03-07T12:48:21;7.50;99.90
4487;DHT22;2256;48.740;9.106;2024-03-07T12:50:49;7.40;99.90
4487;DHT22;2256;48.740;9.106;2024-03-07T12:53:19;7.10;99.90
4487;DHT22;2256;48.740;9.106;2024-03-07T12:55:45;7.20;99.90
4487;DHT22;2256;48.740;9.106;2024-03-07T12:58:12;7.30;99.90
4487;DHT22;2256;48.740;9.106;2024-03-07T13:00:39;7.40;99.90
4487;DHT22;2256;48.740;9.106;2024-03-07T13:03:07;7.40;99.90
4487;DHT22;2256;48.740;9.106;2024-03-07T13:05:35;7.20;99.90
4487;DHT22;2256;48.740;9.106;2024-03-07T13:08:06;7.00;99.90
4487;DHT22;2256;48.740;9.106;2024-03-07T13:10:37;6.90;99.90
4487;DHT22;2256;48.740;9.106;2024-03-07T13:13:04;6.80;99.90
4487;DHT22;2256;48.740;9.106;2024-03-07T13:15:31;6.70;99.90
4487;DHT22;2256;48.740;9.106;2024-03-07T13:17:57;6.70;99.90
4487;DHT22;2256;48.740;9.106;2024-03-07T13:20:25;6.80;99.90
4487;DHT22;2256;48.740;9.106;2024-03-07T13:22:54;6.70;99.90
4487;DHT22;2256;48.740;9.106;2024-03-07T13:25:23;6.70;99.90
4487;DHT22;2256;48.740;9.106;2024-03-07T13:27:55;6.70;99.90
4487;DHT22;2256;48.740;9.106;2024-03-07T13:30:23;6.80;99.90
4487;DHT22;2256;48.740;9.106;2024-03-07T13:32:53;6.80;99.90
4487;DHT22;2256;48.740;9.106;2024-03-07T13:35:20;6.80;99.90
4487;DHT22;2256;48.740;9.106;2024-03-07T13:37:48;6.90;99.90
4487;DHT22;2256;48.740;9.106;2024-03-07T13:40:17;7.10;99.90
4487;DHT22;2256;48.740;9.106;2024-03-07T13:42:52;7.00;99.90
4487;DHT22;2256;48.740;9.106;2024-03-07T13:45:20;7.00;99.90
4487;DHT22;2256;48.740;9.106;2024-03-07T13:47:48;6.90;99.90
4487;DHT22;2256;48.740;9.106;2024-03-07T13:50:16;6.80;99.90
4487;DHT22;2256;48.740;9.106;2024-03-07T13:52:46;6.90;99.90
4487;DHT22;2256;48.740;9.106;2024-03-07T13:55:34;6.90;99.90
4487;DHT22;2256;48.740;9.106;2024-03-07T13:58:06;6.90;99.90
4487;DHT22;2256;48.740;9.106;2024-03-07T14:00:46;6.80;99.90
4487;DHT22;2256;48.740;9.106;2024-03-07T14:03:39;6.60;99.90
4487;DHT22;2256;48.740;9.106;2024-03-07T14:06:14;6.60;99.90
4487;DHT22;2256;48.740;9.106;2024-03-07T14:09:19;6.80;99.90
4487;DHT22;2256;48.740;9.106;2024-03-07T14:12:27;6.90;99.90
4487;DHT22;2256;48.740;9.106;2024-03-07T14:21:22;6.90;99.90
4487;DHT22;2256;48.740;9.106;2024-03-07T14:24:14;7.00;99.90
4487;DHT22;2256;48.740;9.106;2024-03-07T14:27:01;7.00;99.90
4487;DHT22;2256;48.740;9.106;2024-03-07T14:29:42;6.90;99.90
4487;DHT22;2256;48.740;9.106;2024-03-07T14:32:11;7.00;99.90
4487;DHT22;2256;48.740;9.106;2024-03-07T14:34:54;6.90;99.90
4487;DHT22;2256;48.740;9.106;2024-03-07T14:37:23;7.00;99.90
4487;DHT22;2256;48.740;9.106;2024-03-07T14:39:56;7.20;99.90
4487;DHT22;2256;48.740;9.106;2024-03-07T14:42:35;7.30;99.90
4487;DHT22;2256;48.740;9.106;2024-03-07T14:45:04;7.40;99.90
4487;DHT22;2256;48.740;9.106;2024-03-07T14:47:33;7.50;99.90
4487;DHT22;2256;48.740;9.106;2024-03-07T14:50:00;7.50;99.90
4487;DHT22;2256;48.740;9.106;2024-03-07T14:52:27;7.50;99.90
4487;DHT22;2256;48.740;9.106;2024-03-07T14:54:55;7.60;99.90
4487;DHT22;2256;48.740;9.106;2024-03-07T14:57:22;7.60;99.90
4487;DHT22;2256;48.740;9.106;2024-03-07T14:59:48;7.50;99.90
4487;DHT22;2256;48.740;9.106;2024-03-07T15:02:18;7.50;99.90
4487;DHT22;2256;48.740;9.106;2024-03-07T15:04:46;7.40;99.90
4487;DHT22;2256;48.740;9.106;2024-03-07T15:07:14;7.40;99.90
4487;DHT22;2256;48.740;9.106;2024-03-07T15:09:40;7.40;99.90
4487;DHT22;2256;48.740;9.106;2024-03-07T15:12:07;7.50;99.90
4487;DHT22;2256;48.740;9.106;2024-03-07T15:14:34;7.50;99.90
4487;DHT22;2256;48.740;9.106;2024-03-07T15:17:01;7.50;99.90
4487;DHT22;2256;48.740;9.106;2024-03-07T15:19:32;7.40;99.90
4487;DHT22;2256;48.740;9.106;2024-03-07T15:22:00;7.40;99.90
4487;DHT22;2256;48.740;9.106;2024-03-07T15:24:28;7.40;99.90
4487;DHT22;2256;48.740;9.106;2024-03-07T15:26:55;7.50;99.90
4487;DHT22;2256;48.740;9.106;2024-03-07T15:29:23;7.50;99.90
4487;DHT22;2256;48.740;9.106;2024-03-07T15:31:49;7.40;99.90
4487;DHT22;2256;48.740;9.106;2024-03-07T15:34:16;7.50;99.90
4487;DHT22;2256;48.740;9.106;2024-03-07T15:36:44;7.40;99.90
4487;DHT22;2256;48.740;9.106;2024-03-07T15:39:12;7.30;99.90
4487;DHT22;2256;48.740;9.106;2024-03-07T15:41:51;7.20;99.90
4487;DHT22;2256;48.740;9.106;2024-03-07T15:44:19;7.40;99.90
4487;DHT22;2256;48.740;9.106;2024-03-07T15:46:45;7.20;99.90
4487;DHT22;2256;48.740;9.106;2024-03-07T15:49:14;7.40;99.90
4487;DHT22;2256;48.740;9.106;2024-03-07T15:51:40;7.20;99.90
4487;DHT22;2256;48.740;9.106;2024-03-07T15:54:09;7.20;99.90
4487;DHT22;2256;48.740;9.106;2024-03-07T15:56:37;7.20;99.90
4487;DHT22;2256;48.740;9.106;2024-03-07T15:59:04;7.30;99.90
4487;DHT22;2256;48.740;9.106;2024-03-07T16:01:30;7.30;99.90
4487;DHT22;2256;48.740;9.106;2024-03-07T16:03:59;7.20;99.90
4487;DHT22;2256;48.740;9.106;2024-03-07T16:06:25;7.20;99.90
4487;DHT22;2256;48.740;9.106;2024-03-07T16:08:52;7.20;99.90
4487;DHT22;2256;48.740;9.106;2024-03-07T16:11:22;7.20;99.90
4487;DHT22;2256;48.740;9.106;2024-03-07T16:13:49;7.20;99.90
4487;DHT22;2256;48.740;9.106;2024-03-07T16:16:16;7.20;99.90
4487;DHT22;2256;48.740;9.106;2024-03-07T16:18:45;7.10;99.90
4487;DHT22;2256;48.740;9.106;2024-03-07T16:21:12;7.00;99.90
4487;DHT22;2256;48.740;9.106;2024-03-07T16:23:38;7.10;99.90
4487;DHT22;2256;48.740;9.106;2024-03-07T16:26:06;6.80;99.90
4487;DHT22;2256;48.740;9.106;2024-03-07T16:28:34;6.60;99.90
4487;DHT22;2256;48.740;9.106;2024-03-07T16:31:01;6.60;99.90
4487;DHT22;2256;48.740;9.106;2024-03-07T16:33:30;6.70;99.90